Terminal Aerodrome Forecast
Issued by NWS Bismarck, ND

Home | Current Version | Previous Version | Graphics & Text | Print | Product List | Glossary On
Versions: 1 2 3 4 5 6 7 8 9 10 11 12 13 14 15 16 17 18
000
FTUS43 KBIS 072011 AAA
TAFISN
TAF AMD
KISN 072011Z 0720/0818 30015G25KT P6SM BKN040 OVC050
      TEMPO 0720/0724 BKN015
     FM080100 30012KT P6SM BKN015
     FM080600 30010KT P6SM BKN035
     FM081300 30007KT P6SM BKN015=

USA.gov is the U.S. government's official web portal to all federal, state and local government web resources and services.